Strona główna
METAR-TAF:

METAR-TAF

Lotnisko :

Port lotniczy Tân Sơn Nhất w Ho Chi Minh

Ho Chi Minh, Wietnam

Szerokość geograficzna: 10-49N, Długość geograficzna: 106-40E, wysokość: 19 m

Aktualna obserwacja pogody

Raport powstał 17 minut temu, godzina 03:30 UTC
Wiatr 2 kt z kierunków zmiennych
Temperatura 29°C
Wilgotność 52%
Ciśnienie 1013 hPa
Widzialność 10 km lub więcej
Brak chmur poniżej 1500 m i brak chmur cumulonimbus

METAR: VVTS 100330Z VRB02KT CAVOK 29/18 Q1013 NOSIG

czas: 10:47 (03:47 UTC)

Prognoza

Raport powstał 4 godziny i 47 minut temu, godzina 23:00 UTC
Prognoza ważna od 10 godzina 00 UTC do 11 godzina 06 UTC
Wiatr 3 kt z kierunków zmiennych
Widzialność 10 km lub więcej
Rozproszone chmury na wysokości 2000 ft
Stopniowe zmiany
od 10 godzina 04 UTC do 10 godzina 05 UTC
Wiatr 10 kt od północno-północny wschód

TAF: VVTS 092300Z 1000/1106 VRB03KT 9999 SCT020 BECMG 1004/1005 02010KT

Obserwacja i prognoza pogody dla ponad 4000 lotnisk (raport METAR i TAF).

Dostępne stacje oznaczono żółtymi i czerwonymi punktami na mapie.

Najedź kursorem aby zobaczyć nazwę stacji.

Kliknij aby zobaczyć obserwacje i prognozy pogody.

Aby zmienić mapę: kliknij na zielony przycisk z czarnym krzyżykiem, aby powiększyć; na zielony przycisk z myślnikiem, aby pomniejszyć; na zielone strzałki, aby przejść do map sąsiednich.


METAR-TAF: